Terminal Aerodrome Forecast
Issued by NWS

Home | Current Version | Previous Version | Text Only | Print | Product List | Glossary On
Versions: 1 2 3 4 5 6 7 8 9 10 11 12 13 14 15
000
FTUS43 KUNR 271400 AAA
TAFGCC
TAF AMD
KGCC 271447Z 2715/2812 30015KT P6SM SCT025 BKN060
     FM271800 31018G28KT P6SM SCT035
     FM280000 30010KT P6SM SKC=

USA.gov is the U.S. government's official web portal to all federal, state and local government web resources and services.